Meiringen, Switzerland
Current Conditions -  °F | °C
As of 3:20 AM on Thursday 18 Dec 2014 (Local Time) from LSZC Reporting Station
Overcast Overcast  
Wind Chill: 39°   Ceiling: 7000
Heat Index: 39°   Visibility: 4mi
Dew Point: 39°   Wind: 3mph
Humidity: 100%   Direction: 280°W
Pressure: 30.09"   Gusts: NA
Location:  46.73°N, 8.19°E
Report Text: LSZC 180220Z AUTO 28003KT 6000 FEW009 OVC070 04/04 Q1019
Loading
Personal Weather Stations






























Interactive Weather Map New forecast layout! Learn more

10-Day Weather Forecast

Advertisements
Track Severe Weather on mobile